Terminal Aerodrome Forecast
Issued by NWS

Home | Current Version | Previous Version | Text Only | Print | Product List | Glossary On
Versions: 1 2 3 4 5 6 7 8 9 10 11 12 13 14 15 16 17 18 19 20 21 22 23 24 25 26 27 28 29 30
000
FTUS42 TJSJ 161725
TAFKPK
TAF
TKPK 161725Z 1618/1718 06015KT P6SM VCTS SCT020CB BKN050
     FM171000 07015KT P6SM VCSH SCT020
      AMD NOT SKED 1702/1711=

USA.gov is the U.S. government's official web portal to all federal, state and local government web resources and services.